Terminal Aerodrome Forecast
Issued by NWS

Home | Current Version | Previous Version | Text Only | Print | Product List | Glossary On
Versions: 1 2 3 4 5 6 7 8 9 10 11 12 13 14 15 16 17 18
000
FTUS46 KMTR 210140 AAA
TAFSJC
TAF AMD
KSJC 210140Z 2102/2124 20007KT P6SM -RA FEW002 BKN050 OVC100
     FM210600 17010KT P6SM VCSH BKN050 OVC100
     FM211400 15011KT P6SM VCSH BKN050 OVC100
     FM211900 18010KT P6SM VCSH BKN050 OVC100=

USA.gov is the U.S. government's official web portal to all federal, state and local government web resources and services.